Washington, OK (73093)

3:09 AM CST on February 06, 2016 (GMT -0600)
Ladd Road addition | | Change Station
CLOSE
Current Station
Personal Weather Station
Location: Washington, OK
Elevation: 1142 ft
Nearby Weather Stations

Elev 1142 ft 35.11 °N, 97.45 °W | Updated 10 seconds ago

Overcast
Overcast
43.7 °F
Feels Like 40 °F
N
6.0
Wind Variable Wind from NNE
Gusts 7.4 mph

Today
High -- | Low -- °F
--% Chance of Precip.
Yesterday
High -- | Low -- °F
Precip. -- in
Pressure 30.29 in
Visibility 10.0 miles
Clouds Mostly Cloudy 7000 ft
Overcast 8500 ft
Windchill 40 °F
Dew Point 35 °F
Humidity 71%
Rainfall 0.00 in
Snow Depth Not available.
7:25 AM 6:03 PM
Waning Crescent, 6% visible
METAR KOUN 060855Z AUTO 02003KT 10SM BKN070 OVC085 05/01 A3029 RMK AO2
Pressure 30.29 in
Visibility 10.0 miles
Clouds Mostly Cloudy 7000 ft
Overcast 8500 ft
Windchill 40 °F
Dew Point 35 °F
Humidity 71%
Rainfall 0.00 in
Snow Depth Not available.
7:25 AM 6:03 PM
Waning Crescent, 6% visible
METAR KOUN 060855Z AUTO 02003KT 10SM BKN070 OVC085 05/01 A3029 RMK AO2

10-Day Weather Forecast

Almanac

Astronomy

Feb. 06, 2016 Rise Set
Actual Time
Civil Twilight
Nautical Twilight
Astronomical Twilight
Moon
Length of Visible Light
Length of Day
Tomorrow will be .
, % of the Moon is Illuminated

Today's Extremes

State Highs State Lows

Community

WunderPhotos

Upload Photos

1,890,933 photos uploaded!

WunderBlog® & News

Nearby

Air Quality

  Air Quality AQ Index Pollutant
Not available.

Snow Depth

Station Depth Elevation

Earthquake Activity

City Distance Mag. Time & Date
Minimum magnitude displayed is 2.5.

Coastal Water Temperatures

Place Temperature

Stations

Nearby Weather Stations

Station Location Temp. Windchill Dew Point Humidity Wind Precip. Elev Updated Type
                   

Watches & Warnings

There are currently no watches in effect.